Time;durP1;ratioP1;P1;durP2;ratioP2;P2;SDS_P1;SDS_P2;PMS_P1;PMS_P2;Temp;Humidity;BMP_temperature;BMP_pressure;BME280_temperature;BME280_humidity;BME280_pressure;Samples;Min_cycle;Max_cycle;Signal;HPM_P1;HPM_P2
2023/05/12 00:02:11;;;;;;;26.45;20.02;;;;;;;;;;5090795;28;20458;-59
2023/05/12 00:04:39;;;;;;;33.20;25.67;;;;;;;;;;5090405;28;20024;-58
2023/05/12 00:07:05;;;;;;;65.78;44.78;;;;;;;;;;5090569;28;20032;-57
2023/05/12 00:09:32;;;;;;;34.42;24.08;;;;;;;;;;5090459;28;20042;-56
2023/05/12 00:11:58;;;;;;;31.30;23.25;;;;;;;;;;5087891;28;20036;-58
2023/05/12 00:14:24;;;;;;;30.88;23.52;;;;;;;;;;5070325;28;20028;-57
2023/05/12 00:16:50;;;;;;;28.55;21.67;;;;;;;;;;5086577;28;20385;-56
2023/05/12 00:19:20;;;;;;;37.72;25.35;;;;;;;;;;5090458;28;20073;-56
2023/05/12 00:21:47;;;;;;;37.75;26.52;;;;;;;;;;5090524;28;20038;-56
2023/05/12 00:24:13;;;;;;;28.85;21.02;;;;;;;;;;5090376;28;20043;-56
2023/05/12 00:26:39;;;;;;;30.15;21.27;;;;;;;;;;5089944;28;20024;-56
2023/05/12 00:29:06;;;;;;;39.63;26.70;;;;;;;;;;5090261;28;20058;-59
2023/05/12 00:31:32;;;;;;;30.80;21.95;;;;;;;;;;5090139;28;20035;-62
2023/05/12 00:33:58;;;;;;;40.67;26.50;;;;;;;;;;5090045;28;20017;-58
2023/05/12 00:36:24;;;;;;;51.47;37.50;;;;;;;;;;5089855;28;20021;-58
2023/05/12 00:38:50;;;;;;;27.33;20.92;;;;;;;;;;5089985;28;20012;-58
2023/05/12 00:41:16;;;;;;;28.88;21.55;;;;;;;;;;5090133;28;20034;-58
2023/05/12 00:43:42;;;;;;;30.55;23.33;;;;;;;;;;5090150;28;20466;-57
2023/05/12 00:46:08;;;;;;;25.02;17.60;;;;;;;;;;5089667;28;20088;-58
2023/05/12 00:48:35;;;;;;;27.77;19.60;;;;;;;;;;5089927;28;20031;-58
2023/05/12 00:51:02;;;;;;;26.13;19.38;;;;;;;;;;5089568;28;20043;-59
2023/05/12 00:53:28;;;;;;;22.65;18.00;;;;;;;;;;5089607;28;20031;-59
2023/05/12 00:55:56;;;;;;;24.08;17.88;;;;;;;;;;5089647;28;20099;-60
2023/05/12 00:58:22;;;;;;;24.55;17.35;;;;;;;;;;5090026;28;20051;-62
2023/05/12 01:00:48;;;;;;;25.85;17.67;;;;;;;;;;5089001;28;20083;-58
2023/05/12 01:03:14;;;;;;;53.33;31.05;;;;;;;;;;5090089;28;20024;-60
2023/05/12 01:06:12;;;;;;;31.02;20.23;;;;;;;;;;5089731;28;20026;-59
2023/05/12 01:08:40;;;;;;;29.38;19.50;;;;;;;;;;4987415;28;20117;-57
2023/05/12 01:11:06;;;;;;;30.52;20.60;;;;;;;;;;4987930;28;20050;-60
2023/05/12 01:13:32;;;;;;;43.30;27.25;;;;;;;;;;4987775;28;20535;-62
2023/05/12 01:15:59;;;;;;;24.77;18.70;;;;;;;;;;4987214;28;20070;-58
2023/05/12 01:18:26;;;;;;;61.35;44.47;;;;;;;;;;4987680;28;20121;-59
2023/05/12 01:20:55;;;;;;;28.10;19.17;;;;;;;;;;4987575;28;20026;-60
2023/05/12 01:23:24;;;;;;;26.55;20.88;;;;;;;;;;4987497;28;20504;-59
2023/05/12 01:25:50;;;;;;;26.67;16.58;;;;;;;;;;4986854;28;20053;-60
2023/05/12 01:28:17;;;;;;;21.05;15.05;;;;;;;;;;4987484;28;20030;-59
2023/05/12 01:30:43;;;;;;;19.63;14.70;;;;;;;;;;4987427;28;20481;-59
2023/05/12 01:33:09;;;;;;;25.88;17.45;;;;;;;;;;4987334;28;20026;-62
2023/05/12 01:35:35;;;;;;;25.20;18.83;;;;;;;;;;4987723;28;20503;-62
2023/05/12 01:38:02;;;;;;;26.95;19.55;;;;;;;;;;4987306;28;20104;-57
2023/05/12 01:40:28;;;;;;;21.95;17.25;;;;;;;;;;4987268;28;20034;-58
2023/05/12 01:42:54;;;;;;;26.55;17.55;;;;;;;;;;4978637;28;20380;-57
2023/05/12 01:45:20;;;;;;;23.67;18.02;;;;;;;;;;5045893;28;20491;-57
2023/05/12 01:47:46;;;;;;;24.23;17.63;;;;;;;;;;5048794;28;20029;-56
2023/05/12 01:50:12;;;;;;;22.45;18.92;;;;;;;;;;5049023;28;20095;-56
2023/05/12 01:52:38;;;;;;;24.13;18.25;;;;;;;;;;5048312;28;20033;-60
2023/05/12 01:55:04;;;;;;;25.58;17.90;;;;;;;;;;5045825;28;20057;-63
2023/05/12 01:57:31;;;;;;;26.52;18.45;;;;;;;;;;5028506;28;20036;-63
2023/05/12 01:59:57;;;;;;;28.33;18.50;;;;;;;;;;5044697;28;20026;-60
2023/05/12 02:02:23;;;;;;;24.15;17.58;;;;;;;;;;5041235;28;20029;-60
2023/05/12 02:04:49;;;;;;;27.33;19.75;;;;;;;;;;5042071;28;20036;-62
2023/05/12 02:07:16;;;;;;;23.38;16.88;;;;;;;;;;5048571;28;20521;-56
2023/05/12 02:09:42;;;;;;;24.55;16.73;;;;;;;;;;5049082;28;20057;-58
2023/05/12 02:12:08;;;;;;;28.05;17.83;;;;;;;;;;5047888;28;20036;-61
2023/05/12 02:14:34;;;;;;;22.92;17.27;;;;;;;;;;5048491;28;20056;-62
2023/05/12 02:17:00;;;;;;;22.70;16.52;;;;;;;;;;5044063;28;20451;-59
2023/05/12 02:19:26;;;;;;;24.20;18.38;;;;;;;;;;5040038;28;20032;-59
2023/05/12 02:21:52;;;;;;;28.73;18.90;;;;;;;;;;5048296;28;20025;-59
2023/05/12 02:24:20;;;;;;;22.67;16.40;;;;;;;;;;5048566;28;20053;-61
2023/05/12 02:26:46;;;;;;;23.52;18.05;;;;;;;;;;5049526;28;20029;-60
2023/05/12 02:29:12;;;;;;;22.17;16.15;;;;;;;;;;5052636;28;20371;-57
2023/05/12 02:31:38;;;;;;;31.27;19.80;;;;;;;;;;5051528;28;20036;-57
2023/05/12 02:34:04;;;;;;;21.83;15.85;;;;;;;;;;5038291;28;20494;-56
2023/05/12 02:36:31;;;;;;;19.77;13.88;;;;;;;;;;5052228;28;20120;-57
2023/05/12 02:38:57;;;;;;;17.77;14.13;;;;;;;;;;5052186;28;20021;-57
2023/05/12 02:41:23;;;;;;;17.77;14.18;;;;;;;;;;5051936;28;20025;-56
2023/05/12 02:43:49;;;;;;;20.55;14.65;;;;;;;;;;5083974;28;20192;-56
2023/05/12 02:46:15;;;;;;;18.65;12.40;;;;;;;;;;5092041;28;20028;-57
2023/05/12 02:48:41;;;;;;;31.48;19.30;;;;;;;;;;5092113;28;20031;-60
2023/05/12 02:51:07;;;;;;;22.13;14.05;;;;;;;;;;5091985;28;20032;-59
2023/05/12 02:53:33;;;;;;;21.10;12.38;;;;;;;;;;5092023;28;20041;-58
2023/05/12 02:55:59;;;;;;;12.32;9.35;;;;;;;;;;5092171;28;20103;-60
2023/05/12 02:58:25;;;;;;;16.83;10.88;;;;;;;;;;5091733;28;20019;-62
2023/05/12 03:00:52;;;;;;;18.27;10.52;;;;;;;;;;5092108;28;20374;-57
2023/05/12 03:03:18;;;;;;;13.40;10.95;;;;;;;;;;5091560;28;20477;-57
2023/05/12 03:05:44;;;;;;;16.95;12.43;;;;;;;;;;5078803;28;20029;-59
2023/05/12 03:08:10;;;;;;;13.60;11.00;;;;;;;;;;5065069;28;20117;-58
2023/05/12 03:10:36;;;;;;;15.75;10.13;;;;;;;;;;5091743;28;20493;-60
2023/05/12 03:13:02;;;;;;;16.08;9.95;;;;;;;;;;5091052;28;20135;-58
2023/05/12 03:15:28;;;;;;;12.88;9.85;;;;;;;;;;5091006;28;20016;-58
2023/05/12 03:17:55;;;;;;;11.60;9.30;;;;;;;;;;5091933;28;20024;-58
2023/05/12 03:20:21;;;;;;;15.10;10.77;;;;;;;;;;5091122;28;20061;-58
2023/05/12 03:22:47;;;;;;;14.10;10.20;;;;;;;;;;5079658;28;20444;-59
2023/05/12 03:25:14;;;;;;;12.63;8.85;;;;;;;;;;5090231;28;20093;-61
2023/05/12 03:27:40;;;;;;;18.02;9.75;;;;;;;;;;5091244;28;20024;-58
2023/05/12 03:30:06;;;;;;;15.05;10.18;;;;;;;;;;5091050;28;20016;-59
2023/05/12 03:32:33;;;;;;;14.07;9.57;;;;;;;;;;5091236;28;20032;-57
2023/05/12 03:34:59;;;;;;;14.75;10.32;;;;;;;;;;5091192;28;20016;-58
2023/05/12 03:37:25;;;;;;;16.83;11.35;;;;;;;;;;5091911;28;20111;-58
2023/05/12 03:39:54;;;;;;;28.88;17.48;;;;;;;;;;5090383;28;20027;-58
2023/05/12 03:42:21;;;;;;;16.48;10.98;;;;;;;;;;5090863;28;20071;-62
2023/05/12 03:44:47;;;;;;;21.20;14.52;;;;;;;;;;5090796;28;20474;-57
2023/05/12 03:47:13;;;;;;;33.85;20.40;;;;;;;;;;5091207;28;20564;-60
2023/05/12 03:49:39;;;;;;;19.40;12.38;;;;;;;;;;5090528;28;20066;-58
2023/05/12 03:52:06;;;;;;;41.13;22.83;;;;;;;;;;5091133;28;20524;-58
2023/05/12 03:54:32;;;;;;;36.30;21.95;;;;;;;;;;5090874;28;20082;-58
2023/05/12 03:56:58;;;;;;;40.67;23.00;;;;;;;;;;5090754;28;20149;-61
2023/05/12 03:59:24;;;;;;;21.80;13.95;;;;;;;;;;5090863;28;20107;-57
2023/05/12 04:01:52;;;;;;;34.78;22.13;;;;;;;;;;5090317;28;20099;-58
2023/05/12 04:04:18;;;;;;;25.08;15.65;;;;;;;;;;5090715;28;20016;-57
2023/05/12 04:06:44;;;;;;;17.38;12.60;;;;;;;;;;5091045;28;20112;-60
2023/05/12 04:09:10;;;;;;;16.08;11.13;;;;;;;;;;5090419;28;20016;-58
2023/05/12 04:11:36;;;;;;;14.60;10.85;;;;;;;;;;5090241;28;20066;-57
2023/05/12 04:14:03;;;;;;;13.40;9.20;;;;;;;;;;5090573;28;20028;-59
2023/05/12 04:16:29;;;;;;;12.45;9.80;;;;;;;;;;5090172;28;20038;-57
2023/05/12 04:18:56;;;;;;;12.98;9.15;;;;;;;;;;5090667;28;20047;-58
2023/05/12 04:21:22;;;;;;;11.95;9.18;;;;;;;;;;5090648;28;20462;-59
2023/05/12 04:23:51;;;;;;;13.93;10.10;;;;;;;;;;5090298;28;20028;-61
2023/05/12 04:26:17;;;;;;;14.85;10.00;;;;;;;;;;5089079;28;20056;-57
2023/05/12 04:28:43;;;;;;;13.02;10.70;;;;;;;;;;5078121;28;20051;-59
2023/05/12 04:31:09;;;;;;;12.77;9.10;;;;;;;;;;5090063;28;20063;-57
2023/05/12 04:33:35;;;;;;;16.25;12.45;;;;;;;;;;5090136;28;20027;-57
2023/05/12 04:36:02;;;;;;;24.38;16.60;;;;;;;;;;5090341;28;20374;-57
2023/05/12 04:38:28;;;;;;;17.65;12.20;;;;;;;;;;5090290;28;20043;-58
2023/05/12 04:40:58;;;;;;;21.50;15.73;;;;;;;;;;5090354;28;20024;-58
2023/05/12 04:43:24;;;;;;;17.17;12.32;;;;;;;;;;5089601;28;20040;-57
2023/05/12 04:45:50;;;;;;;13.73;10.77;;;;;;;;;;5082526;28;20028;-57
2023/05/12 04:48:16;;;;;;;23.63;16.52;;;;;;;;;;5069760;28;20024;-58
2023/05/12 04:50:42;;;;;;;18.08;12.80;;;;;;;;;;5057892;28;20026;-59
2023/05/12 04:53:08;;;;;;;16.15;11.73;;;;;;;;;;5089395;28;20103;-59
2023/05/12 04:55:35;;;;;;;19.25;13.52;;;;;;;;;;5089734;28;20051;-57
2023/05/12 04:58:01;;;;;;;20.88;14.93;;;;;;;;;;5089337;28;20061;-59
2023/05/12 05:00:27;;;;;;;15.95;12.82;;;;;;;;;;5080896;28;20020;-60
2023/05/12 05:02:53;;;;;;;15.73;12.98;;;;;;;;;;5089046;28;20378;-58
2023/05/12 05:05:19;;;;;;;12.98;9.65;;;;;;;;;;5083774;28;20389;-59
2023/05/12 05:07:45;;;;;;;14.32;11.05;;;;;;;;;;5089365;28;20103;-57
2023/05/12 05:10:11;;;;;;;16.33;10.30;;;;;;;;;;5089063;28;20164;-62
2023/05/12 05:12:37;;;;;;;14.40;10.30;;;;;;;;;;5089322;28;20036;-58
2023/05/12 05:15:03;;;;;;;26.50;16.10;;;;;;;;;;5089989;28;20496;-57
2023/05/12 05:17:29;;;;;;;23.45;15.85;;;;;;;;;;5089242;28;20024;-58
2023/05/12 05:19:55;;;;;;;28.48;17.17;;;;;;;;;;5089724;28;20020;-58
2023/05/12 05:22:22;;;;;;;18.65;14.57;;;;;;;;;;5089231;28;20099;-58
2023/05/12 05:24:48;;;;;;;25.88;19.02;;;;;;;;;;5088936;28;20024;-58
2023/05/12 05:27:14;;;;;;;23.23;16.55;;;;;;;;;;5089417;28;20103;-59
2023/05/12 05:29:40;;;;;;;32.67;24.45;;;;;;;;;;5088582;28;20487;-57
2023/05/12 05:32:06;;;;;;;52.58;33.00;;;;;;;;;;5089150;28;20562;-57
2023/05/12 05:34:32;;;;;;;49.28;34.63;;;;;;;;;;5087556;28;20059;-58
2023/05/12 05:36:58;;;;;;;59.90;39.15;;;;;;;;;;5081706;28;20024;-58
2023/05/12 05:39:24;;;;;;;48.67;33.40;;;;;;;;;;5077530;28;20031;-58
2023/05/12 05:41:50;;;;;;;47.75;29.77;;;;;;;;;;5088619;28;20028;-58
2023/05/12 05:44:16;;;;;;;60.75;35.17;;;;;;;;;;5069891;28;20105;-57
2023/05/12 05:46:42;;;;;;;39.50;27.27;;;;;;;;;;5052590;28;20040;-61
2023/05/12 05:49:08;;;;;;;27.85;20.02;;;;;;;;;;5083750;28;20024;-61
2023/05/12 05:51:34;;;;;;;24.52;16.10;;;;;;;;;;5088958;28;20123;-63
2023/05/12 05:54:00;;;;;;;21.83;17.50;;;;;;;;;;5088075;28;20038;-63
2023/05/12 05:56:26;;;;;;;21.08;15.80;;;;;;;;;;5081904;28;20028;-65
2023/05/12 05:58:52;;;;;;;23.90;15.20;;;;;;;;;;5079611;28;20103;-61
2023/05/12 06:01:18;;;;;;;66.03;47.67;;;;;;;;;;5070209;28;20040;-60
2023/05/12 06:03:44;;;;;;;74.85;49.95;;;;;;;;;;5078260;28;20033;-61
2023/05/12 06:06:10;;;;;;;77.05;51.15;;;;;;;;;;5091502;28;20028;-61
2023/05/12 06:08:36;;;;;;;99.25;56.15;;;;;;;;;;5092941;28;20055;-62
2023/05/12 06:11:03;;;;;;;150.15;99.68;;;;;;;;;;5093041;28;20489;-60
2023/05/12 06:13:29;;;;;;;145.70;106.88;;;;;;;;;;5092608;28;20028;-65
2023/05/12 06:15:55;;;;;;;82.57;56.38;;;;;;;;;;5080710;28;20082;-61
2023/05/12 06:18:22;;;;;;;88.38;52.55;;;;;;;;;;5089627;28;20024;-61
2023/05/12 06:20:48;;;;;;;79.15;43.53;;;;;;;;;;5092650;28;20028;-61
2023/05/12 06:23:14;;;;;;;75.88;44.22;;;;;;;;;;5081832;28;20542;-61
2023/05/12 06:25:40;;;;;;;58.47;38.85;;;;;;;;;;5075666;28;20035;-63
2023/05/12 06:28:07;;;;;;;47.58;32.03;;;;;;;;;;5081074;28;20524;-61
2023/05/12 06:30:33;;;;;;;44.97;34.90;;;;;;;;;;5091228;28;20073;-64
2023/05/12 06:32:59;;;;;;;46.03;32.63;;;;;;;;;;5081472;28;20040;-61
2023/05/12 06:35:26;;;;;;;43.15;34.83;;;;;;;;;;5091690;28;20020;-65
2023/05/12 06:37:52;;;;;;;39.33;29.25;;;;;;;;;;5091760;28;20024;-60
2023/05/12 06:40:18;;;;;;;39.88;26.15;;;;;;;;;;5089751;28;20409;-63
2023/05/12 06:42:44;;;;;;;31.27;23.08;;;;;;;;;;5078632;28;20501;-62
2023/05/12 06:45:11;;;;;;;35.50;24.33;;;;;;;;;;5071833;28;20056;-60
2023/05/12 06:47:38;;;;;;;41.70;26.15;;;;;;;;;;5086148;28;20103;-65
2023/05/12 06:50:05;;;;;;;45.60;29.52;;;;;;;;;;5092533;28;20074;-65
2023/05/12 06:52:31;;;;;;;40.05;33.05;;;;;;;;;;5091613;28;20082;-61
2023/05/12 06:54:57;;;;;;;40.53;30.98;;;;;;;;;;5052886;28;20037;-61
2023/05/12 06:57:23;;;;;;;31.17;23.55;;;;;;;;;;5086141;28;20111;-68
2023/05/12 06:59:49;;;;;;;22.13;19.80;;;;;;;;;;5086642;28;20078;-67
2023/05/12 07:02:15;;;;;;;30.73;22.73;;;;;;;;;;5083079;28;20035;-60
2023/05/12 07:04:41;;;;;;;28.83;21.45;;;;;;;;;;5091803;28;20020;-62
2023/05/12 07:07:07;;;;;;;23.48;19.58;;;;;;;;;;5091067;28;20024;-63
2023/05/12 07:09:34;;;;;;;33.17;20.92;;;;;;;;;;5091999;28;20050;-65
2023/05/12 07:12:00;;;;;;;28.85;25.85;;;;;;;;;;5091350;28;20028;-61
2023/05/12 07:14:26;;;;;;;27.88;21.77;;;;;;;;;;5090923;28;20039;-63
2023/05/12 07:16:52;;;;;;;25.60;22.27;;;;;;;;;;5073372;28;20029;-60
2023/05/12 07:19:18;;;;;;;25.38;19.98;;;;;;;;;;5071606;28;20033;-59
2023/05/12 07:21:44;;;;;;;26.30;19.85;;;;;;;;;;5071723;28;20107;-64
2023/05/12 07:24:10;;;;;;;36.30;25.98;;;;;;;;;;5071458;28;20029;-60
2023/05/12 07:26:36;;;;;;;46.10;32.58;;;;;;;;;;5071485;28;20036;-60
2023/05/12 07:29:04;;;;;;;37.83;26.77;;;;;;;;;;5081892;28;20028;-61
2023/05/12 07:31:31;;;;;;;80.65;43.30;;;;;;;;;;5090643;28;20119;-61
2023/05/12 07:33:57;;;;;;;34.22;25.40;;;;;;;;;;5090747;28;20130;-61
2023/05/12 07:36:23;;;;;;;32.10;24.33;;;;;;;;;;5091595;28;20035;-66
2023/05/12 07:38:49;;;;;;;49.05;32.50;;;;;;;;;;5090547;28;20407;-61
2023/05/12 07:41:16;;;;;;;27.98;22.20;;;;;;;;;;5089902;28;20059;-62
2023/05/12 07:43:42;;;;;;;27.60;20.40;;;;;;;;;;5088722;28;20561;-61
2023/05/12 07:46:08;;;;;;;25.10;17.10;;;;;;;;;;5091130;28;20081;-60
2023/05/12 07:48:38;;;;;;;25.95;17.48;;;;;;;;;;5091164;28;20051;-66
2023/05/12 07:51:04;;;;;;;38.15;23.95;;;;;;;;;;5091299;28;20032;-67
2023/05/12 07:53:30;;;;;;;39.70;23.58;;;;;;;;;;5090988;28;20398;-61
2023/05/12 07:55:56;;;;;;;34.92;21.20;;;;;;;;;;5078077;28;20039;-61
2023/05/12 07:58:22;;;;;;;30.38;27.58;;;;;;;;;;5052167;28;20029;-62
2023/05/12 08:00:48;;;;;;;16.90;13.57;;;;;;;;;;5076111;28;20032;-68
2023/05/12 08:03:15;;;;;;;20.02;14.15;;;;;;;;;;5090754;28;20065;-61
2023/05/12 08:05:41;;;;;;;32.97;20.30;;;;;;;;;;5090731;28;20036;-68
2023/05/12 08:08:15;;;;;;;41.90;31.88;;;;;;;;;;5070953;28;20024;-61
2023/05/12 08:10:41;;;;;;;28.33;23.05;;;;;;;;;;5089935;28;20020;-62
2023/05/12 08:13:08;;;;;;;26.08;18.73;;;;;;;;;;5090632;28;20112;-62
2023/05/12 08:15:34;;;;;;;75.07;46.97;;;;;;;;;;5072492;28;20495;-62
2023/05/12 08:18:00;;;;;;;25.83;19.73;;;;;;;;;;5090618;28;20028;-63
2023/05/12 08:20:26;;;;;;;37.55;26.55;;;;;;;;;;5089113;28;20020;-66
2023/05/12 08:22:52;;;;;;;18.77;13.07;;;;;;;;;;5069925;28;20103;-65
2023/05/12 08:25:18;;;;;;;13.05;9.73;;;;;;;;;;5069736;28;20016;-65
2023/05/12 08:27:44;;;;;;;16.27;14.52;;;;;;;;;;5070033;28;20382;-69
2023/05/12 08:30:10;;;;;;;61.65;44.72;;;;;;;;;;5083273;28;20020;-68
2023/05/12 08:32:37;;;;;;;24.95;21.92;;;;;;;;;;5090387;28;20036;-64
2023/05/12 08:35:03;;;;;;;18.25;14.07;;;;;;;;;;5090392;28;20077;-66
2023/05/12 08:37:29;;;;;;;75.95;57.88;;;;;;;;;;5090279;28;20027;-66
2023/05/12 08:39:56;;;;;;;29.23;25.02;;;;;;;;;;5090278;28;20066;-62
2023/05/12 08:42:41;;;;;;;23.92;18.60;;;;;;;;;;5090018;28;20101;-67
2023/05/12 08:45:07;;;;;;;28.63;21.50;;;;;;;;;;5090160;28;20063;-63
2023/05/12 08:47:33;;;;;;;30.20;20.17;;;;;;;;;;5090204;28;20074;-66
2023/05/12 08:50:00;;;;;;;54.85;38.35;;;;;;;;;;5089973;28;20425;-64
2023/05/12 08:52:29;;;;;;;25.90;20.00;;;;;;;;;;5090082;28;20047;-64
2023/05/12 08:54:55;;;;;;;17.98;14.70;;;;;;;;;;5089578;28;20012;-68
2023/05/12 08:57:22;;;;;;;18.13;14.77;;;;;;;;;;5089871;28;20028;-67
2023/05/12 08:59:48;;;;;;;46.63;29.58;;;;;;;;;;5089483;28;20028;-65
2023/05/12 09:02:16;;;;;;;17.13;14.90;;;;;;;;;;5089528;28;20027;-62
2023/05/12 09:04:42;;;;;;;9.63;6.82;;;;;;;;;;5089717;28;20350;-68
2023/05/12 09:07:08;;;;;;;16.17;11.65;;;;;;;;;;5089518;28;20035;-63
2023/05/12 09:09:37;;;;;;;17.50;13.52;;;;;;;;;;5090160;28;20016;-65
2023/05/12 09:12:03;;;;;;;13.32;11.23;;;;;;;;;;5089457;28;20720;-68
2023/05/12 09:14:34;;;;;;;12.15;8.48;;;;;;;;;;5089745;28;20059;-66
2023/05/12 09:17:02;;;;;;;10.82;8.25;;;;;;;;;;5089039;28;20016;-62
2023/05/12 09:19:28;;;;;;;14.88;11.52;;;;;;;;;;5089625;28;20016;-66
2023/05/12 09:21:55;;;;;;;19.40;13.35;;;;;;;;;;5089496;28;20024;-62
2023/05/12 09:24:32;;;;;;;16.08;12.30;;;;;;;;;;5088651;28;20130;-63
2023/05/12 09:26:58;;;;;;;16.90;11.43;;;;;;;;;;5089474;28;20039;-65
2023/05/12 09:29:24;;;;;;;11.10;9.40;;;;;;;;;;5089846;28;20111;-63
2023/05/12 09:31:51;;;;;;;13.70;9.13;;;;;;;;;;5088777;28;20032;-63
2023/05/12 09:34:18;;;;;;;14.38;10.50;;;;;;;;;;5089018;28;20055;-63
2023/05/12 09:36:47;;;;;;;21.95;18.48;;;;;;;;;;5088692;28;20108;-62
2023/05/12 09:39:13;;;;;;;26.92;22.02;;;;;;;;;;5089321;28;20028;-63
2023/05/12 09:41:41;;;;;;;15.40;13.00;;;;;;;;;;5088977;28;20028;-64
2023/05/12 09:44:07;;;;;;;11.05;9.45;;;;;;;;;;5088584;28;20498;-63
2023/05/12 09:46:34;;;;;;;11.63;7.60;;;;;;;;;;5089132;28;20059;-61
2023/05/12 09:49:02;;;;;;;11.35;7.35;;;;;;;;;;5088860;28;20020;-62
2023/05/12 09:51:29;;;;;;;12.77;9.82;;;;;;;;;;5088882;28;20032;-68
2023/05/12 09:53:56;;;;;;;16.25;13.02;;;;;;;;;;5089214;28;20099;-62
2023/05/12 09:56:24;;;;;;;13.93;9.75;;;;;;;;;;5089118;28;20028;-61
2023/05/12 09:58:50;;;;;;;16.02;10.15;;;;;;;;;;5088648;28;20032;-64
2023/05/12 10:01:17;;;;;;;9.80;8.50;;;;;;;;;;5088690;28;20035;-63
2023/05/12 10:03:48;;;;;;;10.80;8.50;;;;;;;;;;5088809;28;20389;-63
2023/05/12 10:06:15;;;;;;;16.45;11.48;;;;;;;;;;5089187;28;20024;-68
2023/05/12 10:09:02;;;;;;;12.48;8.82;;;;;;;;;;5088473;28;20017;-66
2023/05/12 10:11:28;;;;;;;14.65;11.60;;;;;;;;;;5075405;28;20101;-64
2023/05/12 10:13:55;;;;;;;19.98;14.80;;;;;;;;;;5089093;28;20471;-68
2023/05/12 10:16:22;;;;;;;14.75;11.73;;;;;;;;;;5088548;28;20028;-63
2023/05/12 10:18:48;;;;;;;10.85;8.68;;;;;;;;;;5088464;28;20035;-63
2023/05/12 10:21:14;;;;;;;13.15;9.65;;;;;;;;;;5089113;28;20373;-62
2023/05/12 10:23:41;;;;;;;12.50;9.30;;;;;;;;;;5088561;28;20031;-68
2023/05/12 10:26:09;;;;;;;10.75;8.52;;;;;;;;;;5070343;28;20028;-67
2023/05/12 10:28:35;;;;;;;10.80;8.68;;;;;;;;;;5088858;28;20030;-65
2023/05/12 10:31:03;;;;;;;8.95;8.13;;;;;;;;;;5088530;28;20020;-67
2023/05/12 10:33:29;;;;;;;7.22;5.80;;;;;;;;;;5088370;28;20119;-62
2023/05/12 10:35:55;;;;;;;10.60;5.57;;;;;;;;;;5089071;28;20021;-65
2023/05/12 10:38:21;;;;;;;8.25;6.40;;;;;;;;;;5062985;28;20024;-69
2023/05/12 10:40:50;;;;;;;10.00;8.00;;;;;;;;;;5056142;28;20029;-66
2023/05/12 10:43:23;;;;;;;15.45;11.05;;;;;;;;;;5044527;28;20140;-69
2023/05/12 10:46:05;;;;;;;15.30;8.23;;;;;;;;;;5038629;28;20044;-68
2023/05/12 10:48:31;;;;;;;11.90;8.00;;;;;;;;;;5047771;28;20033;-63
2023/05/12 10:51:05;;;;;;;13.88;8.88;;;;;;;;;;5053279;28;20071;-68
2023/05/12 10:53:34;;;;;;;16.88;12.70;;;;;;;;;;5049029;28;20115;-66
2023/05/12 10:56:04;;;;;;;20.95;15.45;;;;;;;;;;5053223;28;20103;-68
2023/05/12 10:58:30;;;;;;;75.72;54.72;;;;;;;;;;5055530;28;20106;-68
2023/05/12 11:01:03;;;;;;;16.00;13.18;;;;;;;;;;5059283;28;20479;-67
2023/05/12 11:03:29;;;;;;;30.38;16.67;;;;;;;;;;5049347;28;20021;-69
2023/05/12 11:06:03;;;;;;;19.00;15.90;;;;;;;;;;5051341;28;20032;-65
2023/05/12 11:08:30;;;;;;;13.23;9.95;;;;;;;;;;5050127;28;20360;-65
2023/05/12 11:10:56;;;;;;;19.20;15.57;;;;;;;;;;5039074;28;20032;-67
2023/05/12 11:13:23;;;;;;;45.70;24.83;;;;;;;;;;5042182;28;20044;-65
2023/05/12 11:15:49;;;;;;;36.78;24.25;;;;;;;;;;5045741;28;20040;-66
2023/05/12 11:18:22;;;;;;;20.80;10.95;;;;;;;;;;5049182;28;20530;-67
2023/05/12 11:20:49;;;;;;;11.93;7.47;;;;;;;;;;5032722;28;20361;-66
2023/05/12 11:23:28;;;;;;;23.77;16.77;;;;;;;;;;5045122;28;20454;-67
2023/05/12 11:25:55;;;;;;;6.13;5.07;;;;;;;;;;5056044;28;20043;-66
2023/05/12 11:28:21;;;;;;;6.28;4.47;;;;;;;;;;5047607;28;20018;-67
2023/05/12 11:30:51;;;;;;;9.50;7.15;;;;;;;;;;5054327;28;20025;-64
2023/05/12 11:33:20;;;;;;;9.85;6.13;;;;;;;;;;5041536;28;20097;-66
2023/05/12 11:35:46;;;;;;;9.50;7.53;;;;;;;;;;5057331;28;20029;-68
2023/05/12 11:38:20;;;;;;;19.45;12.82;;;;;;;;;;5051967;28;20025;-67
2023/05/12 11:40:46;;;;;;;45.72;26.05;;;;;;;;;;5044898;28;20525;-68
2023/05/12 11:43:14;;;;;;;32.83;21.70;;;;;;;;;;5055293;28;20120;-69
2023/05/12 11:45:40;;;;;;;57.65;32.83;;;;;;;;;;5069219;28;20110;-68
2023/05/12 11:48:11;;;;;;;21.45;14.70;;;;;;;;;;5070525;28;20452;-63
2023/05/12 11:50:38;;;;;;;11.57;4.57;;;;;;;;;;5066640;28;20033;-62
2023/05/12 11:53:04;;;;;;;10.68;6.82;;;;;;;;;;5070399;28;20498;-64
2023/05/12 11:55:32;;;;;;;6.32;3.75;;;;;;;;;;5070779;28;20139;-64
2023/05/12 11:58:00;;;;;;;8.20;5.32;;;;;;;;;;5065940;28;20032;-65
2023/05/12 12:00:31;;;;;;;9.77;5.90;;;;;;;;;;5073788;28;20023;-63
2023/05/12 12:03:07;;;;;;;11.68;8.65;;;;;;;;;;5069886;28;20095;-64
2023/05/12 12:05:33;;;;;;;11.68;7.50;;;;;;;;;;5073083;28;20028;-67
2023/05/12 12:08:06;;;;;;;98.07;55.08;;;;;;;;;;5069208;28;20029;-67
2023/05/12 12:10:32;;;;;;;120.45;73.35;;;;;;;;;;5065293;28;20062;-67
2023/05/12 12:13:00;;;;;;;40.67;31.60;;;;;;;;;;5040495;28;20053;-68
2023/05/12 12:15:26;;;;;;;59.33;33.65;;;;;;;;;;5072178;28;20028;-62
2023/05/12 12:17:52;;;;;;;39.00;22.23;;;;;;;;;;5056540;28;20029;-69
2023/05/12 12:20:18;;;;;;;172.75;106.80;;;;;;;;;;5060858;28;20021;-66
2023/05/12 12:22:44;;;;;;;56.80;36.20;;;;;;;;;;5068239;28;20024;-69
2023/05/12 12:25:10;;;;;;;46.08;23.38;;;;;;;;;;5076068;28;20472;-69
2023/05/12 12:27:36;;;;;;;40.78;21.00;;;;;;;;;;5071914;28;20044;-65
2023/05/12 12:30:03;;;;;;;32.72;17.02;;;;;;;;;;5066245;28;20432;-63
2023/05/12 12:32:29;;;;;;;11.55;6.47;;;;;;;;;;5068776;28;20386;-65
2023/05/12 12:34:58;;;;;;;10.73;7.05;;;;;;;;;;5079819;28;20103;-66
2023/05/12 12:37:24;;;;;;;21.67;14.15;;;;;;;;;;5055403;28;20113;-64
2023/05/12 12:39:50;;;;;;;15.32;10.20;;;;;;;;;;5056590;28;20109;-67
2023/05/12 12:42:18;;;;;;;22.20;16.63;;;;;;;;;;5061822;28;20051;-66
2023/05/12 12:44:46;;;;;;;18.05;12.55;;;;;;;;;;5057364;28;20127;-65
2023/05/12 12:47:12;;;;;;;25.80;18.05;;;;;;;;;;5057544;28;20395;-67
2023/05/12 12:49:38;;;;;;;53.10;45.58;;;;;;;;;;5056888;28;20119;-68
2023/05/12 12:52:05;;;;;;;291.65;213.82;;;;;;;;;;5059094;28;20133;-65
2023/05/12 12:54:31;;;;;;;169.38;122.57;;;;;;;;;;5056803;28;20383;-65
2023/05/12 12:56:57;;;;;;;62.08;55.42;;;;;;;;;;5059493;28;20429;-66
2023/05/12 12:59:23;;;;;;;24.88;22.35;;;;;;;;;;5062806;28;20032;-64
2023/05/12 13:01:49;;;;;;;27.17;24.48;;;;;;;;;;5064950;28;20025;-64
2023/05/12 13:04:20;;;;;;;39.00;35.20;;;;;;;;;;5062057;28;20055;-62
2023/05/12 13:06:46;;;;;;;49.35;43.60;;;;;;;;;;5057910;28;20203;-67
2023/05/12 13:09:15;;;;;;;52.50;47.10;;;;;;;;;;5060303;28;20031;-67
2023/05/12 13:11:42;;;;;;;32.70;28.42;;;;;;;;;;5059206;28;20047;-62
2023/05/12 13:14:07;;;;;;;47.35;42.42;;;461.40;2380.80;;;;;;5044073;28;20028;-60
2023/05/12 13:16:33;;;;;;;31.33;28.15;;;461.40;2380.80;;;;;;5055034;28;20075;-61
2023/05/12 13:18:59;;;;;;;37.58;33.92;;;;;;;;;;5057899;28;20455;-64
2023/05/12 13:21:25;;;;;;;23.65;21.45;;;;;;;;;;5055914;28;20036;-65
2023/05/12 13:23:51;;;;;;;64.65;59.30;;;;;;;;;;5059849;28;20032;-63
2023/05/12 13:26:17;;;;;;;38.35;34.58;;;;;;;;;;5050311;28;20417;-61
2023/05/12 13:28:43;;;;;;;40.47;36.40;;;;;;;;;;5053035;28;20099;-65
2023/05/12 13:31:09;;;;;;;52.85;47.15;;;;;;;;;;5056042;28;20033;-66
2023/05/12 13:33:35;;;;;;;69.43;61.70;;;;;;;;;;5050946;28;20112;-70
2023/05/12 13:36:02;;;;;;;49.22;44.08;;;;;;;;;;5066957;28;20048;-66
2023/05/12 13:38:28;;;;;;;37.75;32.85;;;;;;;;;;5061339;28;20016;-63
2023/05/12 13:40:54;;;;;;;26.90;23.40;;;;;;;;;;5065547;28;20059;-62
2023/05/12 13:43:20;;;;;;;33.83;30.33;;;;;;;;;;5061885;28;20051;-66
2023/05/12 13:45:46;;;;;;;28.70;25.85;;;;;;;;;;5061739;28;20428;-63
2023/05/12 13:48:13;;;;;;;28.98;24.48;;;;;;;;;;5052934;28;20021;-64
2023/05/12 13:50:39;;;;;;;80.97;61.55;;;;;;;;;;5049062;28;20037;-63
2023/05/12 13:53:05;;;;;;;270.55;194.25;;;;;;;;;;5049951;28;20036;-69
2023/05/12 13:55:33;;;;;;;56.83;43.40;;;;;;;;;;5058737;28;20028;-64
2023/05/12 13:57:59;;;;;;;118.43;104.43;;;;;;;;;;5058455;28;20132;-64
2023/05/12 14:00:28;;;;;;;13.20;11.35;;;;;;;;;;5056831;28;20021;-62
2023/05/12 14:02:55;;;;;;;8.27;7.20;;;;;;;;;;5067431;28;20035;-59
2023/05/12 14:05:21;;;;;;;9.13;6.45;;;;;;;;;;5069460;28;20474;-57
2023/05/12 14:07:47;;;;;;;10.75;6.60;;;;;;;;;;5064173;28;20032;-58
2023/05/12 14:10:14;;;;;;;8.38;5.38;;;;;;;;;;5061273;28;20025;-57
2023/05/12 14:12:43;;;;;;;7.53;4.68;;;;;;;;;;5054533;28;20099;-58
2023/05/12 14:15:10;;;;;;;12.63;8.00;;;;;;;;;;5059372;28;20032;-58
2023/05/12 14:17:36;;;;;;;8.55;4.90;;;;;;;;;;5061079;28;20033;-61